WG5L-1 Weather Reports


Display with metric or nautical units.
time (UTC)temp
F
wind
direction
speed
MPH
gust
MPH
rain 1hr
in
rain 24hr
in
rain mn
in
humidity
%
barometer
mb
20220528071510 60 38 0.0 0.0 0.00 0.00 0.00 91 1012.6
20220528070008 61 38 0.0 0.0 0.00 0.00 0.00 91 1012.9
20220528064509 61 38 0.0 0.0 0.00 0.00 0.00 92 1013.0
20220528063004 61 38 0.0 0.0 0.00 0.00 0.00 91 1013.0
20220528061502 62 38 0.0 0.0 0.00 0.00 0.00 91 1013.2
20220528060004 62 38 0.0 0.0 0.00 0.00 0.00 90 1013.2
20220528054606 62 38 0.0 0.0 0.00 0.00 0.00 90 1013.3
20220528053057 62 38 0.0 0.0 0.00 0.00 0.00 90 1013.5
20220528051558 63 38 0.0 0.0 0.00 0.00 0.00 89 1013.6
20220528050108 63 38 0.0 0.0 0.00 0.00 0.00 87 1013.4
20220528044552 64 38 0.0 0.0 0.00 0.00 0.00 87 1013.5
20220528043100 64 38 0.0 0.0 0.00 0.00 0.00 86 1013.6
20220528041558 65 38 0.0 0.0 0.00 0.00 0.00 85 1013.6
20220528040054 67 348 0.0 0.0 0.00 0.00 0.00 78 1013.6
20220528034608 68 348 0.0 0.0 0.00 0.00 0.00 77 1013.8
20220528033051 69 348 0.0 0.0 0.00 0.00 0.00 75 1013.6
20220528031550 70 348 0.0 0.0 0.00 0.00 0.00 73 1013.5
20220528030050 71 348 0.0 0.0 0.00 0.00 0.00 70 1013.5
20220528024548 71 348 0.0 0.0 0.00 0.00 0.00 68 1013.2
20220528023101 72 348 0.0 0.0 0.00 0.00 0.00 66 1013.2
20220528021548 74 348 0.0 0.0 0.00 0.00 0.00 63 1013.1
20220528020052 75 348 0.0 0.0 0.00 0.00 0.00 60 1013.1
20220528014557 77 348 0.0 0.0 0.00 0.00 0.00 57 1013.1
20220528013047 79 348 0.0 0.0 0.00 0.00 0.00 55 1012.9
20220528011546 81 348 0.0 0.0 0.00 0.00 0.00 51 1013.0
20220528010046 82 348 0.0 0.0 0.00 0.00 0.00 47 1012.9
20220528004556 84 348 0.0 0.0 0.00 0.00 0.00 42 1012.8
20220528003044 85 348 0.0 2.0 0.00 0.00 0.00 39 1012.8
20220528001543 86 348 0.0 3.0 0.00 0.00 0.00 38 1012.8
20220528000044 86 348 0.0 3.0 0.00 0.00 0.00 37 1012.9
20220527234542 87 347 0.0 3.0 0.00 0.00 0.00 37 1012.9
20220527233041 86 348 0.0 1.0 0.00 0.00 0.00 38 1013.0
20220527231542 86 348 0.0 4.0 0.00 0.00 0.00 40 1013.0
20220527230100 86 337 0.0 3.0 0.00 0.00 0.00 37 1013.1
20220527224544 86 336 1.0 4.0 0.00 0.00 0.00 38 1013.2
20220527223038 86 332 0.0 4.0 0.00 0.00 0.00 38 1013.3
20220527221537 87 329 0.0 4.0 0.00 0.00 0.00 36 1013.5
20220527220036 87 321 0.0 5.0 0.00 0.00 0.00 36 1013.7
20220527214535 87 331 1.0 4.0 0.00 0.00 0.00 39 1013.9
20220527213034 86 329 0.0 3.0 0.00 0.00 0.00 35 1014.0
20220527211534 87 308 2.0 7.0 0.00 0.00 0.00 37 1014.2
20220527210035 88 321 1.0 6.0 0.00 0.00 0.00 37 1014.4
20220527204533 88 342 3.0 6.0 0.00 0.00 0.00 37 1014.3
20220527203032 89 311 1.0 7.0 0.00 0.00 0.00 37 1014.5
20220527201540 89 305 1.0 8.0 0.00 0.00 0.00 37 1014.6
20220527200032 88 309 2.0 6.0 0.00 0.00 0.00 36 1014.6
20220527194529 88 312 2.0 6.0 0.00 0.00 0.00 40 1014.9
20220527193029 88 305 3.0 7.0 0.00 0.00 0.00 41 1015.1
20220527191528 87 311 1.0 7.0 0.00 0.00 0.00 38 1015.2
20220527190027 87 299 3.0 7.0 0.00 0.00 0.00 41 1015.5
20220527184524 83 10 0.0 0.0 0.00 0.00 0.00 44 1015.5
20220527183023 82 319 0.0 0.0 0.00 0.00 0.00 46 1015.6
20220527181521 81 247 0.0 0.0 0.00 0.00 0.00 45 1015.8
20220527180019 80 283 0.0 0.0 0.00 0.00 0.00 45 1016.1
20220527174517 80 317 0.0 0.0 0.00 0.00 0.00 49 1016.2
20220527173015 80 26 0.0 0.0 0.00 0.00 0.00 51 1016.4
20220527171515 79 22 0.0 0.0 0.00 0.00 0.00 50 1016.6
20220527170018 78 300 0.0 0.0 0.00 0.00 0.00 53 1016.8
20220527164519 77 297 0.0 0.0 0.00 0.00 0.00 55 1016.8
20220527163008 76 296 0.0 0.0 0.00 0.00 0.00 55 1016.8
20220527161512 76 304 0.0 0.0 0.00 0.00 0.00 55 1016.8
20220527160005 76 311 0.0 0.0 0.00 0.00 0.00 55 1016.5
20220527154507 76 347 0.0 0.0 0.00 0.00 0.00 57 1016.8
20220527153003 76 320 0.0 0.0 0.00 0.00 0.00 59 1016.7
20220527151616 75 336 0.0 0.0 0.00 0.00 0.00 62 1016.9
20220527150058 74 30 0.0 0.0 0.00 0.00 0.00 62 1016.7
20220527144554 73 336 0.0 0.0 0.00 0.00 0.00 62 1016.7
20220527143058 72 329 0.0 0.0 0.00 0.00 0.00 66 1016.5
20220527141549 71 283 0.0 0.0 0.00 0.00 0.00 69 1016.6
20220527140045 69 136 0.0 0.0 0.00 0.00 0.00 70 1016.5
20220527134541 69 286 0.0 0.0 0.00 0.00 0.00 69 1016.4
20220527133056 67 298 0.0 0.0 0.00 0.00 0.00 75 1016.3
20220527131535 66 314 0.0 0.0 0.00 0.00 0.00 76 1016.0
20220527130033 66 322 0.0 0.0 0.00 0.00 0.00 77 1015.7
20220527124532 63 321 0.0 0.0 0.00 0.00 0.00 84 1015.6
20220527123035 60 321 0.0 0.0 0.00 0.00 0.00 89 1015.6
20220527121538 56 321 0.0 0.0 0.00 0.00 0.00 93 1015.4
20220527120030 55 321 0.0 0.0 0.00 0.00 0.00 94 1015.4
20220527114531 55 321 0.0 0.0 0.00 0.00 0.00 95 1015.4
20220527113037 53 321 0.0 0.0 0.00 0.00 0.00 94 1015.3
20220527111525 53 315 0.0 0.0 0.00 0.00 0.00 94 1015.2
20220527110022 54 315 0.0 0.0 0.00 0.00 0.00 94 1015.0
20220527104521 54 315 0.0 0.0 0.00 0.00 0.00 94 1014.9
20220527103022 54 151 0.0 0.0 0.00 0.00 0.00 94 1014.6
20220527101517 54 151 0.0 0.0 0.00 0.00 0.00 93 1014.5
20220527100025 54 151 0.0 0.0 0.00 0.00 0.00 93 1014.2
20220527094512 54 151 0.0 0.0 0.00 0.00 0.00 93 1013.9
20220527093010 55 151 0.0 0.0 0.00 0.00 0.00 92 1013.8
20220527091516 55 151 0.0 0.0 0.00 0.00 0.00 91 1013.6
20220527090008 55 151 0.0 0.0 0.00 0.00 0.00 90 1013.5
20220527084506 56 151 0.0 0.0 0.00 0.00 0.00 90 1013.4
20220527083005 56 151 0.0 0.0 0.00 0.00 0.00 89 1013.6
20220527081503 57 151 0.0 0.0 0.00 0.00 0.00 87 1013.6
20220527080100 58 151 0.0 0.0 0.00 0.00 0.00 86 1013.5
20220527074608 58 168 0.0 0.0 0.00 0.00 0.00 84 1013.5
20220527073055 59 63 0.0 0.0 0.00 0.00 0.00 83 1013.5